createdAt,value
2022-10-23T00:02:02.368Z,23.23
2022-10-23T00:04:30.215Z,21.75
2022-10-23T00:06:57.661Z,21.42
2022-10-23T00:09:25.103Z,20.85
2022-10-23T00:11:53.168Z,22.67
2022-10-23T00:14:23.645Z,21.70
2022-10-23T00:16:51.128Z,22.25
2022-10-23T00:19:18.792Z,20.62
2022-10-23T00:21:46.197Z,19.70
2022-10-23T00:24:13.736Z,22.45
2022-10-23T00:26:41.676Z,22.03
2022-10-23T00:29:09.646Z,20.62
2022-10-23T00:31:38.209Z,19.80
2022-10-23T00:34:08.476Z,19.35
2022-10-23T00:36:36.752Z,19.65
2022-10-23T00:39:04.772Z,19.17
2022-10-23T00:41:33.670Z,18.67
2022-10-23T00:44:06.060Z,20.73
2022-10-23T00:46:34.491Z,20.30
2022-10-23T00:49:02.490Z,20.27
2022-10-23T00:51:34.323Z,20.17
2022-10-23T00:54:23.048Z,20.27
2022-10-23T00:56:52.206Z,24.63
2022-10-23T00:59:19.960Z,20.05
2022-10-23T01:01:48.393Z,17.98
2022-10-23T01:04:16.541Z,20.40
2022-10-23T01:06:48.273Z,19.62
2022-10-23T01:09:55.273Z,21.08
2022-10-23T01:12:35.416Z,21.30
2022-10-23T01:15:09.249Z,22.00
2022-10-23T01:17:48.487Z,21.33
2022-10-23T01:20:28.399Z,23.80
2022-10-23T01:23:02.008Z,22.67
2022-10-23T01:25:48.277Z,23.23
2022-10-23T01:28:22.024Z,20.83
2022-10-23T01:30:49.842Z,20.83
2022-10-23T01:33:27.484Z,23.00
2022-10-23T01:36:06.571Z,22.62
2022-10-23T01:38:40.374Z,23.98
2022-10-23T01:41:17.150Z,23.90
2022-10-23T01:43:45.430Z,24.60
2022-10-23T01:46:16.656Z,26.77
2022-10-23T01:48:48.809Z,23.45
2022-10-23T01:51:17.380Z,26.30
2022-10-23T01:53:46.724Z,27.02
2022-10-23T01:56:20.107Z,28.53
2022-10-23T01:58:49.949Z,27.90
2022-10-23T02:01:20.406Z,25.98
2022-10-23T02:03:48.820Z,28.75
2022-10-23T02:06:16.758Z,31.45
2022-10-23T02:08:44.444Z,25.83
2022-10-23T02:11:18.179Z,27.67
2022-10-23T02:14:06.874Z,26.98
2022-10-23T02:16:39.887Z,26.35
2022-10-23T02:19:19.400Z,24.98
2022-10-23T02:22:05.092Z,25.37
2022-10-23T02:25:08.749Z,28.40
2022-10-23T02:27:40.109Z,24.67
2022-10-23T02:30:11.031Z,25.50
2022-10-23T02:32:42.516Z,22.02
2022-10-23T02:35:11.892Z,24.70
2022-10-23T02:37:40.245Z,24.50
2022-10-23T02:40:09.390Z,23.90
2022-10-23T02:42:42.930Z,25.00
2022-10-23T02:45:22.416Z,22.45
2022-10-23T02:48:14.614Z,23.83
2022-10-23T02:50:58.515Z,21.80
2022-10-23T02:54:08.825Z,22.48
2022-10-23T02:56:48.269Z,20.90
2022-10-23T02:59:31.132Z,21.58
2022-10-23T03:02:06.620Z,23.37
2022-10-23T03:04:39.192Z,22.60
2022-10-23T03:07:11.176Z,22.05
2022-10-23T03:09:39.037Z,21.25
2022-10-23T03:12:06.535Z,26.42
2022-10-23T03:14:34.100Z,23.20
2022-10-23T03:17:03.348Z,23.08
2022-10-23T03:19:30.844Z,21.27
2022-10-23T03:21:58.909Z,24.08
2022-10-23T03:24:26.700Z,22.13
2022-10-23T03:26:54.193Z,20.50
2022-10-23T03:29:29.627Z,22.80
2022-10-23T03:31:57.638Z,20.25
2022-10-23T03:34:25.157Z,19.50
2022-10-23T03:36:53.679Z,21.33
2022-10-23T03:39:21.961Z,21.47
2022-10-23T03:41:49.454Z,22.52
2022-10-23T03:44:17.288Z,22.52
2022-10-23T03:46:45.143Z,23.15
2022-10-23T03:49:12.673Z,23.60
2022-10-23T03:51:44.106Z,23.17
2022-10-23T03:54:11.800Z,24.48
2022-10-23T03:56:39.253Z,24.70
2022-10-23T03:59:07.955Z,23.77
2022-10-23T04:01:35.754Z,21.58
2022-10-23T04:04:03.703Z,23.07
2022-10-23T04:06:31.330Z,23.77
2022-10-23T04:08:59.234Z,19.80
2022-10-23T04:11:27.017Z,20.33
2022-10-23T04:13:54.443Z,21.55
2022-10-23T04:16:24.150Z,20.60
2022-10-23T04:18:52.222Z,18.02
2022-10-23T04:21:19.915Z,21.50
2022-10-23T04:23:47.464Z,20.17
2022-10-23T04:26:15.270Z,20.70
2022-10-23T04:28:42.917Z,20.73
2022-10-23T04:31:10.672Z,21.45
2022-10-23T04:33:41.019Z,19.60
2022-10-23T04:36:08.771Z,18.02
2022-10-23T04:38:36.196Z,18.55
2022-10-23T04:41:04.293Z,17.93
2022-10-23T04:43:31.700Z,19.90
2022-10-23T04:45:59.213Z,17.15
2022-10-23T04:48:29.089Z,15.70
2022-10-23T04:51:00.327Z,16.85
2022-10-23T04:53:29.343Z,15.67
2022-10-23T04:55:58.407Z,15.38
2022-10-23T04:58:27.939Z,17.87
2022-10-23T05:00:56.951Z,18.70
2022-10-23T05:03:25.668Z,17.40
2022-10-23T05:05:55.411Z,18.00
2022-10-23T05:08:24.943Z,17.50
2022-10-23T05:10:52.476Z,19.92
2022-10-23T05:13:20.441Z,15.48
2022-10-23T05:15:51.793Z,15.80
2022-10-23T05:18:25.997Z,17.20
2022-10-23T05:20:58.186Z,17.70
2022-10-23T05:23:26.600Z,16.67
2022-10-23T05:25:54.412Z,15.88
2022-10-23T05:28:22.574Z,18.27
2022-10-23T05:30:50.230Z,25.57
2022-10-23T05:33:18.296Z,22.13
2022-10-23T05:35:45.851Z,18.83
2022-10-23T05:38:14.638Z,19.20
2022-10-23T05:40:42.747Z,18.67
2022-10-23T05:43:14.385Z,18.67
2022-10-23T05:45:42.803Z,18.73
2022-10-23T05:48:29.810Z,17.98
2022-10-23T05:51:09.232Z,18.95
2022-10-23T05:53:40.104Z,14.48
2022-10-23T05:56:10.588Z,17.00
2022-10-23T05:58:39.289Z,15.23
2022-10-23T06:01:09.231Z,18.02
2022-10-23T06:03:39.305Z,18.12
2022-10-23T06:06:08.235Z,19.50
2022-10-23T06:08:36.013Z,17.80
2022-10-23T06:11:12.029Z,17.73
2022-10-23T06:13:41.940Z,17.67
2022-10-23T06:16:15.233Z,14.87
2022-10-23T06:18:43.288Z,17.27
2022-10-23T06:21:12.553Z,18.73
2022-10-23T06:23:41.275Z,16.67
2022-10-23T06:26:11.377Z,16.90
2022-10-23T06:28:39.892Z,15.18
2022-10-23T06:31:08.949Z,15.38
2022-10-23T06:33:36.600Z,21.97
2022-10-23T06:36:05.612Z,22.10
2022-10-23T06:38:36.976Z,21.55
2022-10-23T06:41:05.928Z,22.17
2022-10-23T06:43:34.008Z,22.73
2022-10-23T06:46:05.107Z,27.40
2022-10-23T06:48:35.553Z,72.55
2022-10-23T06:51:08.348Z,62.75
2022-10-23T06:53:36.967Z,117.13
2022-10-23T06:56:06.741Z,30.05
2022-10-23T06:58:36.223Z,31.73
2022-10-23T07:01:06.971Z,31.45
2022-10-23T07:03:35.029Z,30.17
2022-10-23T07:06:05.167Z,38.67
2022-10-23T07:08:33.074Z,36.83
2022-10-23T07:11:05.924Z,96.43
2022-10-23T07:13:35.918Z,26.52
2022-10-23T07:16:16.043Z,30.05
2022-10-23T07:18:44.488Z,29.65
2022-10-23T07:21:13.706Z,37.13
2022-10-23T07:23:41.503Z,33.37
2022-10-23T07:26:12.104Z,36.42
2022-10-23T07:28:41.403Z,38.33
2022-10-23T07:31:09.879Z,36.70
2022-10-23T07:33:41.075Z,33.28
2022-10-23T07:36:09.668Z,32.23
2022-10-23T07:38:37.762Z,29.27
2022-10-23T07:41:08.873Z,23.73
2022-10-23T07:43:39.788Z,27.52
2022-10-23T07:46:09.859Z,23.20
2022-10-23T07:48:38.510Z,28.60
2022-10-23T07:51:12.734Z,27.65
2022-10-23T07:53:40.843Z,23.95
2022-10-23T07:56:15.212Z,22.40
2022-10-23T07:58:45.197Z,19.75
2022-10-23T08:01:21.387Z,17.47
2022-10-23T08:03:49.579Z,17.62
2022-10-23T08:06:17.081Z,17.12
2022-10-23T08:11:20.400Z,17.58
2022-10-23T08:13:48.297Z,19.33
2022-10-23T08:16:15.799Z,18.33
2022-10-23T08:18:45.561Z,16.60
2022-10-23T08:21:13.529Z,16.90
2022-10-23T08:23:41.046Z,17.40
2022-10-23T08:26:09.241Z,16.40
2022-10-23T08:28:36.707Z,15.32
2022-10-23T08:31:15.753Z,17.67
2022-10-23T08:33:45.277Z,17.95
2022-10-23T08:36:20.656Z,14.45
2022-10-23T08:38:48.942Z,17.17
2022-10-23T08:41:27.921Z,17.67
2022-10-23T08:44:24.458Z,15.30
2022-10-23T08:47:04.062Z,16.12
2022-10-23T08:49:55.649Z,14.70
2022-10-23T08:52:30.135Z,12.90
2022-10-23T08:55:14.141Z,15.55
2022-10-23T08:57:47.825Z,15.05
2022-10-23T09:00:18.016Z,13.73
2022-10-23T09:02:48.479Z,14.50
2022-10-23T09:05:30.536Z,17.37
2022-10-23T09:08:16.253Z,13.07
2022-10-23T09:10:51.974Z,16.58
2022-10-23T09:13:34.749Z,11.40
2022-10-23T09:16:18.797Z,10.48
2022-10-23T09:18:47.429Z,10.87
2022-10-23T09:21:15.788Z,10.88
2022-10-23T09:23:43.289Z,10.70
2022-10-23T09:26:18.465Z,9.85
2022-10-23T09:28:51.548Z,9.93
2022-10-23T09:31:19.578Z,15.03
2022-10-23T09:33:58.088Z,13.02
2022-10-23T09:36:29.062Z,11.00
2022-10-23T09:38:59.011Z,11.10
2022-10-23T09:41:35.866Z,12.18
2022-10-23T09:44:18.970Z,11.10
2022-10-23T09:46:53.673Z,12.57
2022-10-23T09:49:24.346Z,13.48
2022-10-23T09:52:19.934Z,14.27
2022-10-23T09:55:21.004Z,13.82
2022-10-23T09:57:49.486Z,13.87
2022-10-23T10:00:19.935Z,11.55
2022-10-23T10:03:03.744Z,12.25
2022-10-23T10:05:34.285Z,11.25
2022-10-23T10:08:05.125Z,14.27
2022-10-23T10:10:39.279Z,12.97
2022-10-23T10:13:33.047Z,9.48
2022-10-23T10:16:06.292Z,8.63
2022-10-23T10:18:43.665Z,12.48
2022-10-23T10:21:13.430Z,10.77
2022-10-23T10:23:50.544Z,13.03
2022-10-23T10:26:53.407Z,8.10
2022-10-23T10:29:31.272Z,11.45
2022-10-23T10:32:34.175Z,8.38
2022-10-23T10:35:09.001Z,14.65
2022-10-23T10:38:08.563Z,9.27
2022-10-23T10:40:41.662Z,8.70
2022-10-23T10:43:29.276Z,8.38
2022-10-23T10:46:19.271Z,9.40
2022-10-23T10:48:57.013Z,9.23
2022-10-23T10:51:44.520Z,7.80
2022-10-23T10:54:23.357Z,10.45
2022-10-23T10:56:51.253Z,8.23
2022-10-23T10:59:29.221Z,7.75
2022-10-23T11:02:03.922Z,8.18
2022-10-23T11:04:40.725Z,8.47
2022-10-23T11:07:12.152Z,5.87
2022-10-23T11:09:40.252Z,7.12
2022-10-23T11:12:15.968Z,6.30
2022-10-23T11:14:43.596Z,6.62
2022-10-23T11:17:20.090Z,6.10
2022-10-23T11:19:50.072Z,6.80
2022-10-23T11:22:43.507Z,6.55
2022-10-23T11:25:32.448Z,7.18
2022-10-23T11:28:12.616Z,6.65
2022-10-23T11:31:11.567Z,8.30
2022-10-23T11:33:49.119Z,9.30
2022-10-23T11:36:19.543Z,8.88
2022-10-23T11:38:49.881Z,7.50
2022-10-23T11:41:25.580Z,8.20
2022-10-23T11:44:01.368Z,7.73
2022-10-23T11:46:35.825Z,6.85
2022-10-23T11:49:06.302Z,6.82
2022-10-23T11:51:38.080Z,6.65
2022-10-23T11:54:09.932Z,7.25
2022-10-23T11:56:38.632Z,9.60
2022-10-23T11:59:56.076Z,7.47
2022-10-23T12:02:33.171Z,8.90
2022-10-23T12:05:05.883Z,10.70
2022-10-23T12:07:36.585Z,10.27
2022-10-23T12:10:47.753Z,11.77
2022-10-23T12:13:37.406Z,10.43
2022-10-23T12:16:07.567Z,16.73
2022-10-23T12:18:55.723Z,14.32
2022-10-23T12:21:28.496Z,16.98
2022-10-23T12:24:26.502Z,20.53
2022-10-23T12:27:01.057Z,23.08
2022-10-23T12:29:52.501Z,20.80
2022-10-23T12:33:06.233Z,23.45
2022-10-23T12:35:53.819Z,31.23
2022-10-23T12:38:25.667Z,23.73
2022-10-23T12:41:11.451Z,31.02
2022-10-23T12:43:41.284Z,30.15
2022-10-23T12:46:16.949Z,27.98
2022-10-23T12:48:50.481Z,26.98
2022-10-23T12:51:24.385Z,17.63
2022-10-23T12:53:52.333Z,13.65
2022-10-23T12:56:20.333Z,12.18
2022-10-23T12:58:56.341Z,11.68
2022-10-23T13:01:29.863Z,9.10
2022-10-23T13:04:26.730Z,8.67
2022-10-23T13:07:02.262Z,12.93
2022-10-23T13:09:32.973Z,10.50
2022-10-23T13:12:02.816Z,7.50
2022-10-23T13:14:39.332Z,9.30
2022-10-23T13:17:11.453Z,7.07
2022-10-23T13:19:39.253Z,8.23
2022-10-23T13:22:19.568Z,9.65
2022-10-23T13:24:47.904Z,8.88
2022-10-23T13:27:31.013Z,6.95
2022-10-23T13:29:59.080Z,7.90
2022-10-23T13:32:30.222Z,6.62
2022-10-23T13:35:10.219Z,8.18
2022-10-23T13:40:27.073Z,6.97
2022-10-23T13:42:56.085Z,7.10
2022-10-23T13:45:26.047Z,8.52
2022-10-23T13:47:53.988Z,8.27
2022-10-23T13:50:22.075Z,8.63
2022-10-23T13:52:49.714Z,7.75
2022-10-23T13:55:24.037Z,7.93
2022-10-23T13:57:52.246Z,9.73
2022-10-23T14:00:19.968Z,10.82
2022-10-23T14:02:47.964Z,8.35
2022-10-23T14:05:15.677Z,11.27
2022-10-23T14:07:43.602Z,9.00
2022-10-23T14:10:11.932Z,9.50
2022-10-23T14:12:41.877Z,8.95
2022-10-23T14:15:10.762Z,8.60
2022-10-23T14:17:39.212Z,9.75
2022-10-23T14:20:07.616Z,10.17
2022-10-23T14:22:35.549Z,9.90
2022-10-23T14:25:04.129Z,10.30
2022-10-23T14:27:31.984Z,9.07
2022-10-23T14:29:59.960Z,10.40
2022-10-23T14:32:28.040Z,11.00
2022-10-23T14:34:55.882Z,12.48
2022-10-23T14:37:23.834Z,9.73
2022-10-23T14:39:51.728Z,12.40
2022-10-23T14:42:20.110Z,12.00
2022-10-23T14:44:49.898Z,15.20
2022-10-23T14:47:21.202Z,12.55
2022-10-23T14:49:52.448Z,12.70
2022-10-23T14:52:21.792Z,13.68
2022-10-23T14:54:52.638Z,11.73
2022-10-23T14:57:22.310Z,12.37
2022-10-23T14:59:51.493Z,12.45
2022-10-23T15:02:19.235Z,13.07
2022-10-23T15:04:47.227Z,12.07
2022-10-23T15:07:15.402Z,10.68
2022-10-23T15:09:43.469Z,10.67
2022-10-23T15:12:11.453Z,13.20
2022-10-23T15:14:39.174Z,11.27
2022-10-23T15:17:07.717Z,11.15
2022-10-23T15:19:36.958Z,11.88
2022-10-23T15:22:04.910Z,12.03
2022-10-23T15:24:32.646Z,10.73
2022-10-23T15:27:00.691Z,11.32
2022-10-23T15:29:29.443Z,10.05
2022-10-23T15:32:01.638Z,12.88
2022-10-23T15:34:30.096Z,10.13
2022-10-23T15:36:58.512Z,10.30
2022-10-23T15:39:28.671Z,9.57
2022-10-23T15:41:57.806Z,11.70
2022-10-23T15:44:28.497Z,11.05
2022-10-23T15:46:57.115Z,9.73
2022-10-23T15:49:29.429Z,10.63
2022-10-23T15:51:58.082Z,10.30
2022-10-23T15:54:28.177Z,10.13
2022-10-23T15:56:58.669Z,14.02
2022-10-23T15:59:27.199Z,11.27
2022-10-23T16:01:55.775Z,13.00
2022-10-23T16:04:24.456Z,9.55
2022-10-23T16:06:53.153Z,9.88
2022-10-23T16:09:21.263Z,9.23
2022-10-23T16:11:49.281Z,10.87
2022-10-23T16:14:20.102Z,10.90
2022-10-23T16:16:47.796Z,10.52
2022-10-23T16:19:17.043Z,11.55
2022-10-23T16:21:45.018Z,13.18
2022-10-23T16:24:12.715Z,11.77
2022-10-23T16:26:41.352Z,12.43
2022-10-23T16:29:09.732Z,11.48
2022-10-23T16:31:37.802Z,12.18
2022-10-23T16:34:06.897Z,10.48
2022-10-23T16:36:35.304Z,11.67
2022-10-23T16:39:05.610Z,12.30
2022-10-23T16:41:43.765Z,10.65
2022-10-23T16:44:18.102Z,12.88
2022-10-23T16:46:46.892Z,14.43
2022-10-23T16:49:14.750Z,14.77
2022-10-23T16:51:42.513Z,12.18
2022-10-23T16:54:10.590Z,13.05
2022-10-23T16:56:38.459Z,15.20
2022-10-23T16:59:06.678Z,15.30
2022-10-23T17:01:34.882Z,15.50
2022-10-23T17:04:03.770Z,11.10
2022-10-23T17:06:33.063Z,14.45
2022-10-23T17:09:01.599Z,13.62
2022-10-23T17:11:35.942Z,16.05
2022-10-23T17:14:11.243Z,13.13
2022-10-23T17:16:45.984Z,12.70
2022-10-23T17:19:39.690Z,15.57
2022-10-23T17:22:08.096Z,13.82
2022-10-23T17:24:37.927Z,12.73
2022-10-23T17:27:06.049Z,13.90
2022-10-23T17:29:34.117Z,11.48
2022-10-23T17:32:02.751Z,12.40
2022-10-23T17:34:36.654Z,17.85
2022-10-23T17:37:04.654Z,13.43
2022-10-23T17:39:32.742Z,13.20
2022-10-23T17:42:01.574Z,14.25
2022-10-23T17:44:29.612Z,12.70
2022-10-23T17:46:57.365Z,13.32
2022-10-23T17:49:26.142Z,14.35
2022-10-23T17:51:55.926Z,12.70
2022-10-23T17:54:25.777Z,12.35
2022-10-23T17:56:53.698Z,13.52
2022-10-23T17:59:23.457Z,22.52
2022-10-23T18:01:51.273Z,18.37
2022-10-23T18:04:20.438Z,13.00
2022-10-23T18:06:52.438Z,13.02
2022-10-23T18:09:22.785Z,11.43
2022-10-23T18:11:50.797Z,12.70
2022-10-23T18:14:19.988Z,12.93
2022-10-23T18:16:49.245Z,12.17
2022-10-23T18:19:18.336Z,13.55
2022-10-23T18:21:48.029Z,13.48
2022-10-23T18:24:16.281Z,11.20
2022-10-23T18:26:46.005Z,11.63
2022-10-23T18:29:14.994Z,10.63
2022-10-23T18:31:43.333Z,11.20
2022-10-23T18:34:17.972Z,11.63
2022-10-23T18:36:46.180Z,12.65
2022-10-23T18:39:15.876Z,11.38
2022-10-23T18:41:44.895Z,11.63
2022-10-23T18:44:16.925Z,12.77
2022-10-23T18:46:48.298Z,11.30
2022-10-23T18:49:17.550Z,13.73
2022-10-23T18:51:45.379Z,14.80
2022-10-23T18:54:15.528Z,13.17
2022-10-23T18:56:44.948Z,15.07
2022-10-23T18:59:16.035Z,14.50
2022-10-23T19:01:44.398Z,14.82
2022-10-23T19:04:15.857Z,12.75
2022-10-23T19:06:45.343Z,13.83
2022-10-23T19:09:14.208Z,11.82
2022-10-23T19:11:42.709Z,10.88
2022-10-23T19:14:11.471Z,14.10
2022-10-23T19:16:48.227Z,17.55
2022-10-23T19:19:20.560Z,24.43
2022-10-23T19:21:49.080Z,21.00
2022-10-23T19:24:24.013Z,18.52
2022-10-23T19:26:52.340Z,18.85
2022-10-23T19:29:22.265Z,21.27
2022-10-23T19:31:57.327Z,17.57
2022-10-23T19:34:25.788Z,17.85
2022-10-23T19:36:54.669Z,23.73
2022-10-23T19:39:22.632Z,21.75
2022-10-23T19:41:51.772Z,18.55
2022-10-23T19:44:20.341Z,16.20
2022-10-23T19:46:48.227Z,24.02
2022-10-23T19:49:17.172Z,23.38
2022-10-23T19:51:50.981Z,21.02
2022-10-23T19:54:21.054Z,18.85
2022-10-23T19:56:49.508Z,16.37
2022-10-23T19:59:17.758Z,21.25
2022-10-23T20:01:49.002Z,16.90
2022-10-23T20:04:18.705Z,19.50
2022-10-23T20:06:47.018Z,18.67
2022-10-23T20:09:14.735Z,16.43
2022-10-23T20:11:43.610Z,19.30
2022-10-23T20:14:11.904Z,16.58
2022-10-23T20:16:39.975Z,16.10
2022-10-23T20:19:11.810Z,19.67
2022-10-23T20:21:41.902Z,16.10
2022-10-23T20:24:10.852Z,19.23
2022-10-23T20:26:43.446Z,18.60
2022-10-23T20:29:11.871Z,18.10
2022-10-23T20:31:39.612Z,15.85
2022-10-23T20:34:08.032Z,17.87
2022-10-23T20:36:46.647Z,18.70
2022-10-23T20:39:20.894Z,18.08
2022-10-23T20:41:48.899Z,19.77
2022-10-23T20:44:18.039Z,22.55
2022-10-23T20:46:45.900Z,27.33
2022-10-23T20:49:14.171Z,31.92
2022-10-23T20:51:42.434Z,33.97
2022-10-23T20:54:10.036Z,33.22
2022-10-23T20:56:38.939Z,31.33
2022-10-23T20:59:10.333Z,38.50
2022-10-23T21:01:44.145Z,41.30
2022-10-23T21:04:13.339Z,40.80
2022-10-23T21:07:04.491Z,41.03
2022-10-23T21:09:30.467Z,40.50
2022-10-23T21:11:58.126Z,46.53
2022-10-23T21:14:25.601Z,42.33
2022-10-23T21:16:53.026Z,44.75
2022-10-23T21:19:20.965Z,43.53
2022-10-23T21:21:48.733Z,47.95
2022-10-23T21:24:17.421Z,48.40
2022-10-23T21:26:45.553Z,41.65
2022-10-23T21:29:18.586Z,37.05
2022-10-23T21:31:59.304Z,35.72
2022-10-23T21:34:27.069Z,39.85
2022-10-23T21:39:43.631Z,33.67
2022-10-23T21:42:12.773Z,34.83
2022-10-23T21:44:40.306Z,33.13
2022-10-23T21:47:07.712Z,34.85
2022-10-23T21:49:35.602Z,39.03
2022-10-23T21:52:04.223Z,38.17
2022-10-23T21:54:31.663Z,34.40
2022-10-23T21:56:59.358Z,36.67
2022-10-23T21:59:29.116Z,35.13
2022-10-23T22:01:59.654Z,39.07
2022-10-23T22:04:27.421Z,36.50
2022-10-23T22:06:55.235Z,36.63
2022-10-23T22:09:22.972Z,33.08
2022-10-23T22:11:54.413Z,32.08
2022-10-23T22:14:22.637Z,31.70
2022-10-23T22:16:50.139Z,31.35
2022-10-23T22:19:19.065Z,33.10
2022-10-23T22:21:47.638Z,30.15
2022-10-23T22:24:16.067Z,27.25
2022-10-23T22:26:46.620Z,31.47
2022-10-23T22:29:16.889Z,28.80
2022-10-23T22:31:48.816Z,32.10
2022-10-23T22:37:11.817Z,26.65
2022-10-23T22:39:39.601Z,26.40
2022-10-23T22:42:07.039Z,25.40
2022-10-23T22:44:34.730Z,26.65
2022-10-23T22:47:02.117Z,26.37
2022-10-23T22:49:29.637Z,25.42
2022-10-23T22:51:57.388Z,29.40
2022-10-23T22:54:24.827Z,24.87
2022-10-23T22:56:52.593Z,25.40
2022-10-23T22:59:20.511Z,25.17
2022-10-23T23:01:49.184Z,24.85
2022-10-23T23:07:10.709Z,24.00
2022-10-23T23:09:40.925Z,26.42
2022-10-23T23:12:10.653Z,26.92
2022-10-23T23:14:38.474Z,25.40
2022-10-23T23:17:07.421Z,31.00
2022-10-23T23:19:35.540Z,26.77
2022-10-23T23:22:03.529Z,25.05
2022-10-23T23:24:30.973Z,31.05
2022-10-23T23:26:58.663Z,25.92
2022-10-23T23:29:26.906Z,30.07
2022-10-23T23:31:54.369Z,29.75
2022-10-23T23:34:22.091Z,27.80
2022-10-23T23:36:49.539Z,28.58
2022-10-23T23:39:17.374Z,33.05
2022-10-23T23:41:45.125Z,29.87
2022-10-23T23:44:12.555Z,31.05
2022-10-23T23:46:39.931Z,33.80
2022-10-23T23:49:07.624Z,31.35
2022-10-23T23:51:35.518Z,37.28
2022-10-23T23:54:03.248Z,34.57
2022-10-23T23:56:31.998Z,31.67
2022-10-23T23:58:59.416Z,33.80
